createdAt,value
2018-06-22T00:00:27.403Z,11.49
2018-06-22T00:01:27.387Z,11.62
2018-06-22T00:02:27.359Z,11.57
2018-06-22T00:03:27.342Z,11.55
2018-06-22T00:04:27.320Z,11.51
2018-06-22T00:05:27.305Z,11.52
2018-06-22T00:06:27.303Z,11.54
2018-06-22T00:07:27.267Z,11.57
2018-06-22T00:08:27.252Z,11.54
2018-06-22T00:09:27.234Z,11.57
2018-06-22T00:10:27.212Z,11.60
2018-06-22T00:11:27.202Z,11.62
2018-06-22T00:12:27.181Z,11.54
2018-06-22T00:13:27.156Z,11.62
2018-06-22T00:14:27.139Z,11.54
2018-06-22T00:15:27.115Z,11.51
2018-06-22T00:16:27.096Z,11.58
2018-06-22T00:17:27.104Z,11.55
2018-06-22T00:18:27.067Z,11.55
2018-06-22T00:19:27.041Z,11.54
2018-06-22T00:20:27.027Z,11.55
2018-06-22T00:21:27.008Z,11.46
2018-06-22T00:22:26.995Z,11.52
2018-06-22T00:23:26.966Z,11.55
2018-06-22T00:24:26.947Z,11.49
2018-06-22T00:25:26.927Z,11.39
2018-06-22T00:26:26.910Z,11.36
2018-06-22T00:27:26.902Z,11.33
2018-06-22T00:28:26.877Z,11.32
2018-06-22T00:29:26.854Z,11.37
2018-06-22T00:30:26.838Z,11.37
2018-06-22T00:31:26.822Z,11.40
2018-06-22T00:32:26.807Z,11.24
2018-06-22T00:33:26.780Z,11.25
2018-06-22T00:34:26.760Z,11.27
2018-06-22T00:35:26.746Z,11.21
2018-06-22T00:36:26.720Z,11.32
2018-06-22T00:37:26.713Z,11.36
2018-06-22T00:38:26.686Z,11.32
2018-06-22T00:39:26.664Z,11.25
2018-06-22T00:40:26.647Z,11.25
2018-06-22T00:41:26.630Z,11.27
2018-06-22T00:42:26.617Z,11.24
2018-06-22T00:43:26.587Z,11.28
2018-06-22T00:44:26.571Z,11.29
2018-06-22T00:45:26.553Z,11.35
2018-06-22T00:46:26.531Z,11.37
2018-06-22T00:47:26.523Z,11.37
2018-06-22T00:48:26.496Z,11.46
2018-06-22T00:49:26.476Z,11.49
2018-06-22T00:50:26.457Z,11.55
2018-06-22T00:51:26.439Z,11.54
2018-06-22T00:52:26.443Z,11.52
2018-06-22T00:53:26.400Z,11.52
2018-06-22T00:54:26.383Z,11.51
2018-06-22T00:55:26.361Z,11.51
2018-06-22T00:56:26.345Z,11.54
2018-06-22T00:57:26.329Z,11.55
2018-06-22T00:58:26.324Z,11.62
2018-06-22T00:59:26.287Z,11.61
2018-06-22T01:00:26.269Z,11.55
2018-06-22T01:01:26.254Z,11.55
2018-06-22T01:02:26.236Z,11.49
2018-06-22T01:03:26.223Z,11.47
2018-06-22T01:04:26.190Z,11.46
2018-06-22T01:05:26.180Z,11.49
2018-06-22T01:06:26.155Z,11.44
2018-06-22T01:07:26.139Z,11.46
2018-06-22T01:08:26.129Z,11.43
2018-06-22T01:09:26.104Z,11.40
2018-06-22T01:10:26.081Z,11.43
2018-06-22T01:11:26.064Z,11.35
2018-06-22T01:12:26.041Z,11.36
2018-06-22T01:13:26.040Z,11.40
2018-06-22T01:14:26.015Z,11.47
2018-06-22T01:15:25.987Z,11.42
2018-06-22T01:16:25.967Z,11.51
2018-06-22T01:17:25.951Z,11.42
2018-06-22T01:18:25.933Z,11.47
2018-06-22T01:19:25.928Z,11.43
2018-06-22T01:20:25.892Z,11.49
2018-06-22T01:21:25.877Z,11.47
2018-06-22T01:22:25.859Z,11.47
2018-06-22T01:23:25.838Z,11.40
2018-06-22T01:24:25.831Z,11.39
2018-06-22T01:25:25.803Z,11.39
2018-06-22T01:26:25.790Z,11.47
2018-06-22T01:27:25.763Z,11.44
2018-06-22T01:28:25.745Z,11.46
2018-06-22T01:29:25.737Z,11.51
2018-06-22T01:30:25.710Z,11.44
2018-06-22T01:31:25.687Z,11.55
2018-06-22T01:32:25.668Z,11.49
2018-06-22T01:33:25.651Z,11.49
2018-06-22T01:34:25.644Z,11.46
2018-06-22T01:35:25.613Z,11.44
2018-06-22T01:36:25.604Z,11.54
2018-06-22T01:37:25.581Z,11.49
2018-06-22T01:38:25.553Z,11.52
2018-06-22T01:39:25.553Z,11.60
2018-06-22T01:40:25.538Z,11.55
2018-06-22T01:41:25.502Z,11.51
2018-06-22T01:42:25.486Z,11.57
2018-06-22T01:43:25.464Z,11.55
2018-06-22T01:44:25.446Z,11.54
2018-06-22T01:45:25.442Z,11.57
2018-06-22T01:46:25.410Z,11.58
2018-06-22T01:47:25.389Z,11.55
2018-06-22T01:48:25.377Z,11.55
2018-06-22T01:49:25.356Z,11.55
2018-06-22T01:50:25.358Z,11.55
2018-06-22T01:51:25.315Z,11.54
2018-06-22T01:52:25.304Z,11.57
2018-06-22T01:53:25.277Z,11.58
2018-06-22T01:54:25.258Z,11.57
2018-06-22T01:55:25.243Z,11.60
2018-06-22T01:56:25.232Z,11.57
2018-06-22T01:57:25.259Z,11.58
2018-06-22T01:58:25.187Z,11.54
2018-06-22T01:59:25.167Z,11.55
2018-06-22T02:00:25.148Z,11.55
2018-06-22T02:01:25.140Z,11.58
2018-06-22T02:02:25.110Z,11.61
2018-06-22T02:03:25.090Z,11.58
2018-06-22T02:04:25.074Z,11.61
2018-06-22T02:05:25.057Z,11.57
2018-06-22T02:06:25.046Z,11.57
2018-06-22T02:07:25.023Z,11.55
2018-06-22T02:08:25.000Z,11.51
2018-06-22T02:09:24.984Z,11.55
2018-06-22T02:10:24.961Z,11.58
2018-06-22T02:11:24.963Z,11.55
2018-06-22T02:12:24.925Z,11.54
2018-06-22T02:13:24.903Z,11.61
2018-06-22T02:14:24.887Z,11.60
2018-06-22T02:15:24.869Z,11.52
2018-06-22T02:16:24.872Z,11.55
2018-06-22T02:17:24.832Z,11.57
2018-06-22T02:18:24.814Z,11.58
2018-06-22T02:19:24.795Z,11.55
2018-06-22T02:20:24.774Z,11.61
2018-06-22T02:21:24.760Z,11.58
2018-06-22T02:22:24.750Z,11.60
2018-06-22T02:23:24.718Z,11.54
2018-06-22T02:24:24.701Z,11.65
2018-06-22T02:25:24.689Z,11.62
2018-06-22T02:26:24.664Z,11.65
2018-06-22T02:27:24.657Z,11.61
2018-06-22T02:28:24.627Z,11.61
2018-06-22T02:29:24.613Z,11.51
2018-06-22T02:30:24.589Z,11.52
2018-06-22T02:31:24.576Z,11.60
2018-06-22T02:32:24.559Z,11.55
2018-06-22T02:33:24.544Z,11.52
2018-06-22T02:34:24.514Z,11.62
2018-06-22T02:35:24.503Z,11.61
2018-06-22T02:36:24.477Z,11.65
2018-06-22T02:37:24.458Z,11.62
2018-06-22T02:38:24.452Z,11.62
2018-06-22T02:39:24.419Z,11.67
2018-06-22T02:40:24.401Z,11.70
2018-06-22T02:41:24.387Z,11.65
2018-06-22T02:42:24.361Z,11.61
2018-06-22T02:43:24.355Z,11.67
2018-06-22T02:44:24.332Z,11.67
2018-06-22T02:45:24.309Z,11.64
2018-06-22T02:46:24.288Z,11.69
2018-06-22T02:47:24.278Z,11.70
2018-06-22T02:48:24.264Z,11.69
2018-06-22T02:49:24.236Z,11.67
2018-06-22T02:50:24.215Z,11.72
2018-06-22T02:51:24.199Z,11.67
2018-06-22T02:52:24.186Z,11.76
2018-06-22T02:53:24.187Z,11.69
2018-06-22T02:54:24.148Z,11.79
2018-06-22T02:55:24.123Z,11.76
2018-06-22T02:56:24.105Z,11.79
2018-06-22T02:57:24.085Z,11.85
2018-06-22T02:58:24.067Z,11.79
2018-06-22T02:59:24.058Z,11.83
2018-06-22T03:00:24.029Z,11.80
2018-06-22T03:01:24.015Z,11.91
2018-06-22T03:02:23.992Z,11.82
2018-06-22T03:03:23.975Z,11.83
2018-06-22T03:04:23.968Z,11.91
2018-06-22T03:05:23.939Z,11.83
2018-06-22T03:06:23.917Z,11.70
2018-06-22T03:07:23.900Z,11.83
2018-06-22T03:08:23.881Z,11.75
2018-06-22T03:09:23.863Z,11.79
2018-06-22T03:10:23.852Z,11.73
2018-06-22T03:11:23.825Z,11.75
2018-06-22T03:12:23.813Z,11.83
2018-06-22T03:13:23.790Z,11.79
2018-06-22T03:14:23.771Z,11.78
2018-06-22T03:15:23.761Z,11.76
2018-06-22T03:16:23.732Z,11.78
2018-06-22T03:17:23.714Z,11.76
2018-06-22T03:18:23.697Z,11.80
2018-06-22T03:19:23.677Z,11.75
2018-06-22T03:20:23.676Z,11.76
2018-06-22T03:21:23.645Z,11.78
2018-06-22T03:22:23.625Z,11.76
2018-06-22T03:23:23.604Z,11.73
2018-06-22T03:24:23.584Z,11.76
2018-06-22T03:25:23.565Z,11.80
2018-06-22T03:26:23.555Z,11.72
2018-06-22T03:27:23.525Z,11.79
2018-06-22T03:28:23.510Z,11.80
2018-06-22T03:29:23.490Z,11.80
2018-06-22T03:30:23.472Z,11.85
2018-06-22T03:31:23.463Z,11.80
2018-06-22T03:32:23.435Z,11.76
2018-06-22T03:33:23.414Z,11.82
2018-06-22T03:34:23.397Z,11.79
2018-06-22T03:35:23.380Z,11.73
2018-06-22T03:36:23.370Z,11.76
2018-06-22T03:37:23.343Z,11.67
2018-06-22T03:38:23.323Z,11.67
2018-06-22T03:39:23.309Z,11.69
2018-06-22T03:40:23.287Z,11.70
2018-06-22T03:41:23.277Z,11.65
2018-06-22T03:42:23.249Z,11.69
2018-06-22T03:43:23.227Z,11.70
2018-06-22T03:44:23.210Z,11.69
2018-06-22T03:45:23.193Z,11.52
2018-06-22T03:46:23.189Z,11.65
2018-06-22T03:47:23.156Z,11.57
2018-06-22T03:48:23.137Z,11.62
2018-06-22T03:49:23.122Z,11.61
2018-06-22T03:50:23.101Z,11.52
2018-06-22T03:51:23.095Z,11.54
2018-06-22T03:52:23.061Z,11.51
2018-06-22T03:53:23.045Z,11.39
2018-06-22T03:54:23.025Z,11.44
2018-06-22T03:55:23.008Z,11.46
2018-06-22T03:56:22.989Z,11.47
2018-06-22T03:57:22.977Z,11.40
2018-06-22T03:58:22.947Z,11.37
2018-06-22T03:59:22.930Z,11.44
2018-06-22T04:00:22.913Z,11.40
2018-06-22T04:01:22.896Z,11.39
2018-06-22T04:02:22.887Z,11.37
2018-06-22T04:03:22.857Z,11.32
2018-06-22T04:04:22.838Z,11.32
2018-06-22T04:05:22.824Z,11.32
2018-06-22T04:06:22.798Z,11.29
2018-06-22T04:07:22.791Z,11.35
2018-06-22T04:08:22.766Z,11.32
2018-06-22T04:09:22.745Z,11.28
2018-06-22T04:10:22.725Z,11.35
2018-06-22T04:11:22.712Z,11.25
2018-06-22T04:12:22.711Z,11.27
2018-06-22T04:13:22.671Z,11.24
2018-06-22T04:14:22.647Z,11.29
2018-06-22T04:15:22.646Z,11.24
2018-06-22T04:16:22.612Z,11.37
2018-06-22T04:17:22.593Z,11.33
2018-06-22T04:18:22.585Z,11.32
2018-06-22T04:19:22.603Z,11.40
2018-06-22T04:20:22.536Z,11.39
2018-06-22T04:21:22.517Z,11.33
2018-06-22T04:22:22.499Z,11.32
2018-06-22T04:23:22.494Z,11.32
2018-06-22T04:24:22.482Z,11.35
2018-06-22T04:25:22.443Z,11.39
2018-06-22T04:26:22.421Z,11.27
2018-06-22T04:27:22.403Z,11.27
2018-06-22T04:28:22.397Z,11.25
2018-06-22T04:29:22.366Z,11.29
2018-06-22T04:30:22.345Z,11.25
2018-06-22T04:31:22.331Z,11.24
2018-06-22T04:32:22.311Z,11.33
2018-06-22T04:33:22.308Z,11.32
2018-06-22T04:34:22.270Z,11.35
2018-06-22T04:35:22.257Z,11.27
2018-06-22T04:36:22.232Z,11.39
2018-06-22T04:37:22.216Z,11.32
2018-06-22T04:38:22.201Z,11.28
2018-06-22T04:39:22.198Z,11.29
2018-06-22T04:40:22.157Z,11.35
2018-06-22T04:41:22.137Z,11.28
2018-06-22T04:42:22.119Z,11.33
2018-06-22T04:43:22.102Z,11.37
2018-06-22T04:44:22.098Z,11.40
2018-06-22T04:45:22.059Z,11.42
2018-06-22T04:46:22.043Z,11.39
2018-06-22T04:47:22.025Z,11.44
2018-06-22T04:48:22.002Z,11.37
2018-06-22T04:49:21.999Z,11.46
2018-06-22T04:50:21.966Z,11.51
2018-06-22T04:51:21.946Z,11.52
2018-06-22T04:52:21.930Z,11.55
2018-06-22T04:53:21.909Z,11.54
2018-06-22T04:54:21.900Z,11.65
2018-06-22T04:55:21.870Z,11.67
2018-06-22T04:56:21.860Z,11.69
2018-06-22T04:57:21.832Z,11.67
2018-06-22T04:58:21.814Z,11.62
2018-06-22T04:59:21.809Z,11.65
2018-06-22T05:00:21.776Z,11.62
2018-06-22T05:01:21.793Z,11.69
2018-06-22T05:02:21.738Z,11.72
2018-06-22T05:03:21.718Z,11.65
2018-06-22T05:04:21.710Z,11.64
2018-06-22T05:05:21.688Z,11.67
2018-06-22T05:06:21.664Z,11.76
2018-06-22T05:07:21.643Z,11.80
2018-06-22T05:08:21.626Z,11.83
2018-06-22T05:09:21.676Z,11.83
2018-06-22T05:10:21.588Z,11.79
2018-06-22T05:11:21.568Z,11.82
2018-06-22T05:12:21.553Z,11.88
2018-06-22T05:13:21.531Z,11.98
2018-06-22T05:14:21.514Z,12.02
2018-06-22T05:15:21.502Z,11.98
2018-06-22T05:16:21.474Z,12.02
2018-06-22T05:17:21.461Z,11.94
2018-06-22T05:18:21.445Z,12.02
2018-06-22T05:19:21.418Z,11.95
2018-06-22T05:20:21.408Z,12.14
2018-06-22T05:21:21.377Z,12.27
2018-06-22T05:22:21.362Z,12.14
2018-06-22T05:23:21.341Z,12.24
2018-06-22T05:24:21.325Z,12.32
2018-06-22T05:25:21.335Z,12.41
2018-06-22T05:26:21.289Z,12.38
2018-06-22T05:27:21.269Z,12.50
2018-06-22T05:28:21.261Z,12.53
2018-06-22T05:29:21.230Z,12.52
2018-06-22T05:30:21.264Z,12.57
2018-06-22T05:31:21.200Z,12.60
2018-06-22T05:32:21.173Z,12.64
2018-06-22T05:33:21.158Z,12.60
2018-06-22T05:34:21.140Z,12.72
2018-06-22T05:35:21.119Z,12.70
2018-06-22T05:36:21.111Z,12.68
2018-06-22T05:37:21.084Z,12.65
2018-06-22T05:38:21.068Z,12.60
2018-06-22T05:39:21.045Z,12.54
2018-06-22T05:40:21.029Z,12.49
2018-06-22T05:41:21.023Z,12.47
2018-06-22T05:42:20.992Z,12.50
2018-06-22T05:43:20.976Z,12.54
2018-06-22T05:44:20.956Z,12.64
2018-06-22T05:45:20.938Z,12.59
2018-06-22T05:46:20.941Z,12.64
2018-06-22T05:47:20.900Z,12.62
2018-06-22T05:48:20.883Z,12.72
2018-06-22T05:49:20.865Z,12.64
2018-06-22T05:50:20.853Z,12.54
2018-06-22T05:51:20.838Z,12.56
2018-06-22T05:52:20.812Z,12.56
2018-06-22T05:53:20.791Z,12.59
2018-06-22T05:54:20.771Z,12.56
2018-06-22T05:55:20.755Z,12.67
2018-06-22T05:56:20.743Z,12.68
2018-06-22T05:57:20.719Z,12.68
2018-06-22T05:58:20.700Z,12.65
2018-06-22T05:59:20.682Z,12.68
2018-06-22T06:00:20.672Z,12.67
2018-06-22T06:01:20.645Z,12.62
2018-06-22T06:02:20.637Z,12.71
2018-06-22T06:03:20.613Z,12.68
2018-06-22T06:04:20.595Z,12.70
2018-06-22T06:05:20.573Z,12.68
2018-06-22T06:06:20.555Z,12.70
2018-06-22T06:07:20.554Z,12.74
2018-06-22T06:08:20.522Z,12.78
2018-06-22T06:09:20.502Z,12.70
2018-06-22T06:10:20.483Z,12.85
2018-06-22T06:11:20.465Z,12.85
2018-06-22T06:12:20.460Z,12.83
2018-06-22T06:13:20.428Z,12.97
2018-06-22T06:14:20.409Z,13.01
2018-06-22T06:15:20.392Z,13.03
2018-06-22T06:16:20.387Z,13.07
2018-06-22T06:17:20.387Z,13.05
2018-06-22T06:18:20.335Z,13.05
2018-06-22T06:19:20.320Z,13.05
2018-06-22T06:20:20.300Z,12.87
2018-06-22T06:21:20.283Z,12.95
2018-06-22T06:22:20.263Z,12.87
2018-06-22T06:23:20.256Z,12.85
2018-06-22T06:24:20.228Z,12.89
2018-06-22T06:25:20.210Z,12.97
2018-06-22T06:26:20.198Z,13.00
2018-06-22T06:27:20.217Z,13.04
2018-06-22T06:28:20.169Z,13.00
2018-06-22T06:29:20.138Z,12.95
2018-06-22T06:30:20.120Z,13.05
2018-06-22T06:31:20.106Z,13.05
2018-06-22T06:32:20.089Z,13.12
2018-06-22T06:33:20.097Z,13.11
2018-06-22T06:34:20.110Z,13.11
2018-06-22T06:35:20.030Z,13.03
2018-06-22T06:36:20.027Z,13.10
2018-06-22T06:37:19.994Z,13.12
2018-06-22T06:38:19.975Z,13.14
2018-06-22T06:39:19.971Z,13.15
2018-06-22T06:40:19.945Z,13.19
2018-06-22T06:41:19.922Z,13.28
2018-06-22T06:42:19.909Z,13.23
2018-06-22T06:43:19.886Z,13.22
2018-06-22T06:44:19.880Z,13.22
2018-06-22T06:45:19.850Z,13.29
2018-06-22T06:46:19.833Z,13.22
2018-06-22T06:47:19.816Z,13.32
2018-06-22T06:48:19.801Z,13.38
2018-06-22T06:49:19.793Z,13.42
2018-06-22T06:50:19.765Z,13.36
2018-06-22T06:51:19.743Z,13.41
2018-06-22T06:52:19.731Z,13.36
2018-06-22T06:53:19.707Z,13.32
2018-06-22T06:54:19.701Z,13.26
2018-06-22T06:55:19.674Z,13.25
2018-06-22T06:56:19.664Z,13.32
2018-06-22T06:57:19.647Z,13.33
2018-06-22T06:58:19.618Z,13.23
2018-06-22T06:59:19.612Z,13.25
2018-06-22T07:00:19.584Z,13.36
2018-06-22T07:01:19.563Z,13.30
2018-06-22T07:02:19.548Z,13.46
2018-06-22T07:03:19.523Z,13.36
2018-06-22T07:04:19.522Z,13.46
2018-06-22T07:05:19.495Z,13.44
2018-06-22T07:06:19.481Z,13.44
2018-06-22T07:07:19.459Z,13.46
2018-06-22T07:08:19.441Z,13.59
2018-06-22T07:09:19.433Z,13.59
2018-06-22T07:10:19.408Z,13.60
2018-06-22T07:11:19.387Z,13.70
2018-06-22T07:12:19.370Z,13.81
2018-06-22T07:13:19.349Z,13.92
2018-06-22T07:14:19.396Z,13.87
2018-06-22T07:15:19.318Z,13.99
2018-06-22T07:16:19.301Z,13.75
2018-06-22T07:17:19.285Z,13.81
2018-06-22T07:18:19.264Z,13.77
2018-06-22T07:19:19.255Z,13.82
2018-06-22T07:20:19.230Z,13.75
2018-06-22T07:21:19.210Z,13.69
2018-06-22T07:22:19.193Z,13.70
2018-06-22T07:23:19.179Z,13.71
2018-06-22T07:24:19.179Z,13.92
2018-06-22T07:25:19.141Z,13.73
2018-06-22T07:26:19.123Z,13.84
2018-06-22T07:27:19.106Z,13.99
2018-06-22T07:28:19.088Z,14.06
2018-06-22T07:29:19.073Z,14.14
2018-06-22T07:30:19.069Z,14.21
2018-06-22T07:31:19.037Z,14.27
2018-06-22T07:32:19.023Z,14.24
2018-06-22T07:33:19.007Z,14.29
2018-06-22T07:34:18.986Z,14.09
2018-06-22T07:35:18.980Z,14.14
2018-06-22T07:36:18.954Z,14.02
2018-06-22T07:37:18.942Z,13.92
2018-06-22T07:38:18.918Z,14.14
2018-06-22T07:39:18.899Z,14.04
2018-06-22T07:40:18.896Z,13.92
2018-06-22T07:41:18.870Z,14.06
2018-06-22T07:42:18.849Z,13.85
2018-06-22T07:43:18.831Z,13.99
2018-06-22T07:44:18.819Z,14.03
2018-06-22T07:45:18.807Z,14.17
2018-06-22T07:46:18.781Z,14.03
2018-06-22T07:47:18.771Z,14.07
2018-06-22T07:48:18.749Z,14.20
2018-06-22T07:49:18.730Z,14.10
2018-06-22T07:50:18.740Z,14.17
2018-06-22T07:51:18.745Z,14.24
2018-06-22T07:52:18.682Z,14.09
2018-06-22T07:53:18.664Z,14.17
2018-06-22T07:54:18.646Z,14.07
2018-06-22T07:55:18.635Z,14.22
2018-06-22T07:56:18.622Z,14.15
2018-06-22T07:57:18.646Z,14.25
2018-06-22T07:58:18.579Z,14.27
2018-06-22T07:59:18.560Z,14.33
2018-06-22T08:00:18.545Z,14.33
2018-06-22T08:01:18.546Z,14.18
2018-06-22T08:02:18.511Z,14.21
2018-06-22T08:03:18.494Z,14.29
2018-06-22T08:04:18.479Z,14.32
2018-06-22T08:05:18.464Z,14.33
2018-06-22T08:06:18.493Z,14.32
2018-06-22T08:07:18.438Z,14.35
2018-06-22T08:08:18.411Z,14.36
2018-06-22T08:09:18.402Z,14.33
2018-06-22T08:10:18.377Z,14.46
2018-06-22T08:11:18.360Z,14.54
2018-06-22T08:12:18.353Z,14.52
2018-06-22T08:13:18.327Z,14.35
2018-06-22T08:14:18.309Z,14.45
2018-06-22T08:15:18.295Z,14.32
2018-06-22T08:16:18.274Z,14.29
2018-06-22T08:17:18.269Z,14.12
2018-06-22T08:18:18.246Z,14.12
2018-06-22T08:19:18.228Z,14.06
2018-06-22T08:20:18.208Z,14.06
2018-06-22T08:21:18.195Z,14.03
2018-06-22T08:22:18.191Z,14.07
2018-06-22T08:23:18.160Z,13.95
2018-06-22T08:24:18.144Z,13.96
2018-06-22T08:25:18.134Z,13.87
2018-06-22T08:26:18.108Z,14.06
2018-06-22T08:27:18.103Z,14.07
2018-06-22T08:28:18.073Z,14.02
2018-06-22T08:29:18.069Z,14.06
2018-06-22T08:30:18.045Z,13.97
2018-06-22T08:31:18.031Z,13.92
2018-06-22T08:32:18.018Z,14.03
2018-06-22T08:33:17.997Z,14.03
2018-06-22T08:34:17.979Z,14.09
2018-06-22T08:35:17.960Z,14.09
2018-06-22T08:36:17.945Z,14.04
2018-06-22T08:37:17.933Z,14.10
2018-06-22T08:38:17.905Z,14.04
2018-06-22T08:39:17.887Z,14.04
2018-06-22T08:40:17.877Z,14.10
2018-06-22T08:41:17.854Z,14.04
2018-06-22T08:42:17.947Z,13.97
2018-06-22T08:43:17.826Z,13.97
2018-06-22T08:44:17.803Z,13.88
2018-06-22T08:45:17.786Z,13.96
2018-06-22T08:46:17.772Z,14.02
2018-06-22T08:47:17.771Z,13.99
2018-06-22T08:48:17.733Z,13.95
2018-06-22T08:49:17.718Z,14.06
2018-06-22T08:50:17.701Z,13.92
2018-06-22T08:51:17.685Z,13.89
2018-06-22T08:52:17.689Z,13.91
2018-06-22T08:53:17.645Z,13.97
2018-06-22T08:54:17.639Z,13.91
2018-06-22T08:55:17.614Z,13.88
2018-06-22T08:56:17.600Z,13.88
2018-06-22T08:57:17.580Z,13.89
2018-06-22T08:58:17.574Z,13.96
2018-06-22T08:59:17.545Z,13.88
2018-06-22T09:00:17.533Z,13.88
2018-06-22T09:01:17.529Z,13.92
2018-06-22T09:02:17.492Z,13.97
2018-06-22T09:03:17.494Z,13.95
2018-06-22T09:04:17.458Z,13.92
2018-06-22T09:05:17.442Z,13.85
2018-06-22T09:06:17.422Z,13.85
2018-06-22T09:07:17.406Z,13.81
2018-06-22T09:08:17.435Z,13.81
2018-06-22T09:09:17.382Z,13.92
2018-06-22T09:10:17.355Z,13.88
2018-06-22T09:11:17.336Z,13.99
2018-06-22T09:12:17.321Z,14.06
2018-06-22T09:13:17.305Z,14.06
2018-06-22T09:14:17.294Z,14.06
2018-06-22T09:15:17.267Z,14.18
2018-06-22T09:16:17.250Z,14.29
2018-06-22T09:17:17.234Z,14.32
2018-06-22T09:18:17.216Z,14.21
2018-06-22T09:19:17.206Z,14.32
2018-06-22T09:20:17.183Z,14.33
2018-06-22T09:21:17.164Z,14.29
2018-06-22T09:22:17.148Z,14.24
2018-06-22T09:23:17.131Z,14.27
2018-06-22T09:24:17.122Z,14.21
2018-06-22T09:25:17.131Z,13.96
2018-06-22T09:26:17.078Z,13.82
2018-06-22T09:27:17.060Z,13.91
2018-06-22T09:28:17.045Z,13.89
2018-06-22T09:29:17.040Z,13.88
2018-06-22T09:30:17.013Z,14.00
2018-06-22T09:31:17.096Z,14.00
2018-06-22T09:32:16.976Z,14.14
2018-06-22T09:33:16.959Z,14.04
2018-06-22T09:34:16.940Z,14.02
2018-06-22T09:35:16.934Z,14.03
2018-06-22T09:36:16.917Z,14.06
2018-06-22T09:37:16.892Z,14.14
2018-06-22T09:38:16.871Z,14.14
2018-06-22T09:39:16.852Z,14.25
2018-06-22T09:40:16.849Z,14.33
2018-06-22T09:41:16.822Z,14.18
2018-06-22T09:42:16.806Z,14.36
2018-06-22T09:43:16.794Z,14.46
2018-06-22T09:44:16.768Z,14.62
2018-06-22T09:45:16.769Z,15.10
2018-06-22T09:46:16.735Z,15.14
2018-06-22T09:47:16.721Z,14.84
2018-06-22T09:48:16.703Z,14.98
2018-06-22T09:49:16.687Z,14.89
2018-06-22T09:50:16.681Z,14.70
2018-06-22T09:51:16.669Z,14.69
2018-06-22T09:52:16.638Z,14.55
2018-06-22T09:53:16.617Z,14.40
2018-06-22T09:54:16.604Z,14.29
2018-06-22T09:55:16.743Z,14.33
2018-06-22T09:56:16.582Z,14.33
2018-06-22T09:57:16.558Z,14.27
2018-06-22T09:58:16.538Z,14.24
2018-06-22T09:59:16.526Z,14.65
2018-06-22T10:00:16.507Z,14.80
2018-06-22T10:01:16.497Z,14.58
2018-06-22T10:02:16.487Z,14.68
2018-06-22T10:03:16.456Z,14.95
2018-06-22T10:04:16.440Z,15.13
2018-06-22T10:05:16.424Z,14.91
2018-06-22T10:06:16.423Z,14.78
2018-06-22T10:07:16.392Z,14.78
2018-06-22T10:08:16.416Z,14.78
2018-06-22T10:09:16.372Z,14.61
2018-06-22T10:10:16.345Z,14.68
2018-06-22T10:11:16.328Z,14.65
2018-06-22T10:12:16.320Z,14.84
2018-06-22T10:13:16.295Z,14.89
2018-06-22T10:14:16.280Z,14.75
2018-06-22T10:15:16.264Z,14.92
2018-06-22T10:16:16.250Z,15.11
2018-06-22T10:17:16.247Z,15.29
2018-06-22T10:18:16.218Z,15.53
2018-06-22T10:19:16.203Z,15.50
2018-06-22T10:20:16.185Z,15.35
2018-06-22T10:21:16.172Z,15.57
2018-06-22T10:22:16.154Z,15.87
2018-06-22T10:23:16.148Z,15.72
2018-06-22T10:24:16.127Z,15.96
2018-06-22T10:25:16.109Z,15.59
2018-06-22T10:26:16.087Z,15.34
2018-06-22T10:27:16.092Z,15.36
2018-06-22T10:28:16.074Z,15.38
2018-06-22T10:29:16.043Z,15.13
2018-06-22T10:30:16.028Z,14.88
2018-06-22T10:31:16.015Z,14.94
2018-06-22T10:32:16.001Z,15.09
2018-06-22T10:33:15.992Z,15.03
2018-06-22T10:34:15.972Z,14.99
2018-06-22T10:35:15.952Z,15.28
2018-06-22T10:36:15.941Z,15.20
2018-06-22T10:37:15.923Z,14.95
2018-06-22T10:38:15.913Z,15.14
2018-06-22T10:39:15.950Z,15.13
2018-06-22T10:40:15.884Z,15.27
2018-06-22T10:41:15.859Z,14.96
2018-06-22T10:42:15.846Z,14.98
2018-06-22T10:43:15.844Z,15.13
2018-06-22T10:44:15.812Z,15.11
2018-06-22T10:45:15.798Z,15.03
2018-06-22T10:46:15.782Z,15.07
2018-06-22T10:47:15.768Z,15.10
2018-06-22T10:48:15.761Z,15.21
2018-06-22T10:49:15.735Z,15.34
2018-06-22T10:50:15.719Z,15.35
2018-06-22T10:51:15.704Z,15.57
2018-06-22T10:52:15.691Z,15.59
2018-06-22T10:53:15.707Z,15.47
2018-06-22T10:54:15.656Z,15.50
2018-06-22T10:55:15.641Z,15.44
2018-06-22T10:56:15.626Z,15.47
2018-06-22T10:57:15.611Z,15.49
2018-06-22T10:58:15.596Z,15.68
2018-06-22T10:59:15.590Z,15.94
2018-06-22T11:00:15.562Z,16.05
2018-06-22T11:01:15.548Z,16.14
2018-06-22T11:02:15.532Z,16.39
2018-06-22T11:03:15.516Z,16.33
2018-06-22T11:04:15.510Z,16.45
2018-06-22T11:05:15.492Z,16.53
2018-06-22T11:06:15.471Z,16.41
2018-06-22T11:07:15.459Z,16.53
2018-06-22T11:08:15.445Z,16.79
2018-06-22T11:09:15.461Z,16.71
2018-06-22T11:10:15.411Z,17.36
2018-06-22T11:11:15.396Z,17.40
2018-06-22T11:12:15.381Z,16.86
2018-06-22T11:13:15.367Z,16.93
2018-06-22T11:14:15.353Z,17.11
2018-06-22T11:15:15.350Z,17.21
2018-06-22T11:16:15.322Z,17.00
2018-06-22T11:17:15.334Z,16.38
2018-06-22T11:18:15.329Z,16.11
2018-06-22T11:19:15.277Z,16.17
2018-06-22T11:20:15.298Z,16.02
2018-06-22T11:21:15.280Z,16.11
2018-06-22T11:22:15.233Z,16.53
2018-06-22T11:23:15.223Z,16.57
2018-06-22T11:24:15.207Z,16.46
2018-06-22T11:25:15.197Z,16.67
2018-06-22T11:26:15.186Z,16.79
2018-06-22T11:27:15.164Z,17.14
2018-06-22T11:28:15.148Z,17.44
2018-06-22T11:29:15.135Z,17.14
2018-06-22T11:30:15.117Z,16.70
2018-06-22T11:31:15.120Z,17.07
2018-06-22T11:32:15.150Z,17.08
2018-06-22T11:33:15.077Z,17.48
2018-06-22T11:34:15.063Z,17.96
2018-06-22T11:35:15.047Z,18.36
2018-06-22T11:36:15.102Z,18.60
2018-06-22T11:37:15.121Z,18.39
2018-06-22T11:38:15.009Z,17.28
2018-06-22T11:39:15.004Z,17.28
2018-06-22T11:40:14.978Z,17.48
2018-06-22T11:41:15.006Z,17.26
2018-06-22T11:42:14.952Z,17.12
2018-06-22T11:43:14.938Z,17.14
2018-06-22T11:44:14.922Z,17.01
2018-06-22T11:45:14.915Z,16.97
2018-06-22T11:46:14.909Z,16.60
2018-06-22T11:47:14.894Z,16.42
2018-06-22T11:48:14.866Z,16.38
2018-06-22T11:49:14.865Z,16.15
2018-06-22T11:50:14.841Z,16.02
2018-06-22T11:51:14.891Z,15.90
2018-06-22T11:52:14.811Z,16.00
2018-06-22T11:53:14.806Z,15.92
2018-06-22T11:54:14.782Z,15.86
2018-06-22T11:55:14.771Z,15.86
2018-06-22T11:56:14.771Z,15.71
2018-06-22T11:57:14.741Z,15.76
2018-06-22T11:58:14.728Z,15.60
2018-06-22T11:59:14.753Z,15.53
2018-06-22T12:00:14.696Z,15.51
2018-06-22T12:01:14.693Z,15.36
2018-06-22T12:02:14.690Z,15.35
2018-06-22T12:03:14.652Z,15.38
2018-06-22T12:04:14.721Z,15.36
2018-06-22T12:05:14.644Z,15.38
2018-06-22T12:06:14.644Z,15.31
2018-06-22T12:07:14.596Z,15.25
2018-06-22T12:08:14.571Z,15.27
2018-06-22T12:09:14.564Z,15.31
2018-06-22T12:10:14.542Z,15.44
2018-06-22T12:11:14.527Z,15.34
2018-06-22T12:12:14.526Z,15.53
2018-06-22T12:13:14.497Z,15.56
2018-06-22T12:14:14.483Z,15.71
2018-06-22T12:15:14.467Z,15.75
2018-06-22T12:16:14.455Z,16.05
2018-06-22T12:17:14.449Z,16.20
2018-06-22T12:18:14.422Z,16.25
2018-06-22T12:19:14.450Z,16.64
2018-06-22T12:20:14.387Z,16.83
2018-06-22T12:21:14.374Z,16.71
2018-06-22T12:22:14.384Z,16.88
2018-06-22T12:23:14.378Z,17.38
2018-06-22T12:24:14.328Z,16.89
2018-06-22T12:25:14.310Z,17.14
2018-06-22T12:26:14.295Z,17.06
2018-06-22T12:27:14.298Z,16.93
2018-06-22T12:28:14.266Z,17.14
2018-06-22T12:29:14.252Z,16.97
2018-06-22T12:30:14.237Z,16.91
2018-06-22T12:31:14.227Z,16.63
2018-06-22T12:32:14.229Z,16.38
2018-06-22T12:33:14.268Z,16.02
2018-06-22T12:34:14.180Z,16.02
2018-06-22T12:35:14.163Z,15.84
2018-06-22T12:36:14.148Z,15.72
2018-06-22T12:37:14.134Z,15.28
2018-06-22T12:38:14.127Z,15.27
2018-06-22T12:39:14.104Z,15.10
2018-06-22T12:40:14.089Z,15.11
2018-06-22T12:41:14.072Z,14.89
2018-06-22T12:42:14.061Z,14.89
2018-06-22T12:43:14.078Z,14.86
2018-06-22T12:44:14.026Z,14.78
2018-06-22T12:45:14.011Z,14.84
2018-06-22T12:46:13.994Z,15.03
2018-06-22T12:47:13.975Z,15.27
2018-06-22T12:48:13.962Z,15.41
2018-06-22T12:49:13.966Z,15.89
2018-06-22T12:50:13.932Z,15.89
2018-06-22T12:51:13.914Z,16.25
2018-06-22T12:52:13.899Z,16.70